Time;durP1;ratioP1;P1;durP2;ratioP2;P2;SDS_P1;SDS_P2;PMS_P1;PMS_P2;Temp;Humidity;BMP_temperature;BMP_pressure;BME280_temperature;BME280_humidity;BME280_pressure;Samples;Min_cycle;Max_cycle;Signal;HPM_P1;HPM_P2
2021/08/12 00:02:04;;;;;;;6.20;4.10;;;;;;;;;;5015915;28;20444;-49
2021/08/12 00:04:31;;;;;;;4.18;3.75;;;;;;;;;;5015507;28;20189;-48
2021/08/12 00:06:57;;;;;;;3.67;3.38;;;;;;;;;;5020487;28;20205;-48
2021/08/12 00:09:23;;;;;;;4.45;3.85;;;;;;;;;;5015167;28;20457;-48
2021/08/12 00:11:49;;;;;;;4.53;3.70;;;;;;;;;;5030936;28;20563;-49
2021/08/12 00:14:16;;;;;;;4.35;3.80;;;;;;;;;;5032835;28;20175;-48
2021/08/12 00:16:42;;;;;;;4.25;3.65;;;;;;;;;;5015514;28;20439;-48
2021/08/12 00:19:12;;;;;;;3.90;3.50;;;;;;;;;;5029900;28;20179;-49
2021/08/12 00:21:38;;;;;;;4.78;3.90;;;;;;;;;;5017105;28;20226;-48
2021/08/12 00:24:04;;;;;;;4.47;3.72;;;;;;;;;;5015056;28;20176;-48
2021/08/12 00:26:30;;;;;;;4.90;3.72;;;;;;;;;;5020624;28;20208;-48
2021/08/12 00:28:56;;;;;;;4.10;3.70;;;;;;;;;;5014773;28;20230;-47
2021/08/12 00:31:22;;;;;;;4.72;4.18;;;;;;;;;;5015092;28;20183;-49
2021/08/12 00:33:48;;;;;;;4.97;3.42;;;;;;;;;;5016239;28;20184;-48
2021/08/12 00:36:14;;;;;;;6.50;3.80;;;;;;;;;;5015199;28;20785;-49
2021/08/12 00:38:40;;;;;;;4.07;3.67;;;;;;;;;;5015674;28;20204;-48
2021/08/12 00:41:06;;;;;;;4.60;3.70;;;;;;;;;;5022601;28;20188;-48
2021/08/12 00:43:32;;;;;;;5.78;3.67;;;;;;;;;;5015216;28;20176;-48
2021/08/12 00:45:58;;;;;;;5.22;3.65;;;;;;;;;;5014895;28;20195;-48
2021/08/12 00:48:24;;;;;;;3.78;3.42;;;;;;;;;;4997102;28;20508;-48
2021/08/12 00:50:51;;;;;;;3.75;3.40;;;;;;;;;;4994899;28;20219;-48
2021/08/12 00:53:17;;;;;;;4.68;3.55;;;;;;;;;;4995195;28;20177;-48
2021/08/12 00:55:45;;;;;;;5.00;3.47;;;;;;;;;;5000590;28;20189;-48
2021/08/12 00:58:14;;;;;;;3.30;3.00;;;;;;;;;;4994828;28;20224;-49
2021/08/12 01:00:40;;;;;;;4.30;3.55;;;;;;;;;;4995040;28;20209;-48
2021/08/12 01:03:10;;;;;;;4.40;3.25;;;;;;;;;;4995299;28;20177;-49
2021/08/12 01:05:42;;;;;;;4.00;3.60;;;;;;;;;;4994956;28;20177;-49
2021/08/12 01:08:24;;;;;;;3.58;3.28;;;;;;;;;;4993983;28;20455;-48
2021/08/12 01:10:55;;;;;;;4.40;3.38;;;;;;;;;;5004591;28;20209;-49
2021/08/12 01:13:27;;;;;;;6.50;4.28;;;;;;;;;;4994732;28;20224;-48
2021/08/12 01:15:56;;;;;;;5.20;3.83;;;;;;;;;;4994903;28;20510;-49
2021/08/12 01:18:28;;;;;;;3.88;3.30;;;;;;;;;;4994554;28;20169;-49
2021/08/12 01:21:14;;;;;;;5.93;3.80;;;;;;;;;;4994684;28;20195;-48
2021/08/12 01:23:40;;;;;;;4.20;3.22;;;;;;;;;;4981233;28;20188;-48
2021/08/12 01:26:07;;;;;;;5.72;3.55;;;;;;;;;;5003317;28;20185;-48
2021/08/12 01:28:37;;;;;;;4.07;3.65;;;;;;;;;;4994424;28;20348;-48
2021/08/12 01:31:13;;;;;;;4.53;3.75;;;;;;;;;;4994816;28;20219;-48
2021/08/12 01:33:45;;;;;;;3.63;3.22;;;;;;;;;;5009277;28;20267;-48
2021/08/12 01:36:13;;;;;;;5.32;3.53;;;;;;;;;;5003315;28;20830;-48
2021/08/12 01:38:40;;;;;;;4.25;3.58;;;;;;;;;;5004647;28;20320;-48
2021/08/12 01:41:06;;;;;;;3.38;3.08;;;;;;;;;;5002988;28;20543;-49
2021/08/12 01:43:33;;;;;;;4.43;3.75;;;;;;;;;;4994685;28;20180;-48
2021/08/12 01:45:59;;;;;;;3.90;3.28;;;;;;;;;;5010934;28;20227;-49
2021/08/12 01:48:26;;;;;;;3.53;3.22;;;;;;;;;;5031290;28;20179;-48
2021/08/12 01:50:53;;;;;;;5.40;3.20;;;;;;;;;;5016594;28;20214;-48
2021/08/12 01:53:20;;;;;;;5.30;3.40;;;;;;;;;;5014001;28;20762;-50
2021/08/12 01:55:47;;;;;;;4.22;3.40;;;;;;;;;;5023230;28;20262;-47
2021/08/12 01:58:15;;;;;;;4.20;3.58;;;;;;;;;;5033508;28;20444;-48
2021/08/12 02:00:42;;;;;;;3.85;3.03;;;;;;;;;;5017884;28;20247;-48
2021/08/12 02:03:08;;;;;;;3.55;3.25;;;;;;;;;;5017368;28;20184;-48
2021/08/12 02:05:34;;;;;;;3.47;3.17;;;;;;;;;;5018372;28;20682;-48
2021/08/12 02:08:01;;;;;;;3.88;3.15;;;;;;;;;;5013486;28;20181;-48
2021/08/12 02:10:27;;;;;;;3.47;3.08;;;;;;;;;;5018355;28;20191;-48
2021/08/12 02:12:53;;;;;;;3.58;3.25;;;;;;;;;;5018650;28;20573;-48
2021/08/12 02:15:20;;;;;;;4.50;3.47;;;;;;;;;;5013901;28;20185;-48
2021/08/12 02:17:46;;;;;;;3.20;2.90;;;;;;;;;;5013715;28;20645;-48
2021/08/12 02:20:14;;;;;;;3.35;3.05;;;;;;;;;;4996747;28;20202;-48
2021/08/12 02:22:45;;;;;;;4.03;2.90;;;;;;;;;;5014201;28;20219;-48
2021/08/12 02:25:17;;;;;;;3.50;3.15;;;;;;;;;;5017092;28;20268;-49
2021/08/12 02:27:45;;;;;;;3.20;2.90;;;;;;;;;;5035079;28;20183;-47
2021/08/12 02:30:12;;;;;;;3.95;3.10;;;;;;;;;;5027459;28;20571;-48
2021/08/12 02:32:38;;;;;;;4.35;3.03;;;;;;;;;;5018464;28;20186;-48
2021/08/12 02:35:05;;;;;;;3.80;3.38;;;;;;;;;;5017404;28;20173;-49
2021/08/12 02:37:33;;;;;;;3.92;3.28;;;;;;;;;;5016475;28;20184;-48
2021/08/12 02:39:59;;;;;;;3.35;3.05;;;;;;;;;;5016932;28;20184;-48
2021/08/12 02:42:25;;;;;;;3.25;2.95;;;;;;;;;;5024987;28;20187;-48
2021/08/12 02:44:52;;;;;;;3.22;2.92;;;;;;;;;;5024185;28;20176;-48
2021/08/12 02:47:20;;;;;;;4.35;3.13;;;;;;;;;;5028219;28;20269;-48
2021/08/12 02:49:47;;;;;;;4.43;2.80;;;;;;;;;;5022568;28;20212;-49
2021/08/12 02:52:13;;;;;;;4.32;3.30;;;;;;;;;;5036814;28;20163;-48
2021/08/12 02:54:40;;;;;;;3.92;3.13;;;;;;;;;;5019742;28;20495;-49
2021/08/12 02:57:06;;;;;;;3.05;2.75;;;;;;;;;;5016515;28;20200;-48
2021/08/12 02:59:32;;;;;;;3.60;3.25;;;;;;;;;;5022324;28;20426;-48
2021/08/12 03:01:59;;;;;;;4.00;2.88;;;;;;;;;;5032134;28;20208;-48
2021/08/12 03:04:26;;;;;;;4.07;3.60;;;;;;;;;;5030237;28;20212;-49
2021/08/12 03:06:56;;;;;;;4.30;3.03;;;;;;;;;;5022508;28;20184;-48
2021/08/12 03:09:23;;;;;;;3.17;2.70;;;;;;;;;;5024069;28;20634;-48
2021/08/12 03:11:49;;;;;;;3.55;3.05;;;;;;;;;;5032050;28;20255;-48
2021/08/12 03:14:15;;;;;;;3.75;3.10;;;;;;;;;;5034414;28;20540;-49
2021/08/12 03:16:41;;;;;;;4.13;3.00;;;;;;;;;;5016696;28;20176;-48
2021/08/12 03:19:08;;;;;;;4.78;3.13;;;;;;;;;;5015959;28;20180;-48
2021/08/12 03:21:34;;;;;;;3.53;2.97;;;;;;;;;;5017092;28;20199;-48
2021/08/12 03:24:04;;;;;;;3.50;3.20;;;;;;;;;;5015939;28;20487;-49
2021/08/12 03:26:30;;;;;;;3.60;3.30;;;;;;;;;;5029365;28;20187;-48
2021/08/12 03:28:56;;;;;;;3.42;2.72;;;;;;;;;;5025348;28;20196;-47
2021/08/12 03:31:22;;;;;;;3.08;2.58;;;;;;;;;;5016202;28;20219;-48
2021/08/12 03:33:48;;;;;;;4.30;3.20;;;;;;;;;;5016216;28;20620;-48
2021/08/12 03:36:14;;;;;;;7.97;3.08;;;;;;;;;;5015553;28;20220;-47
2021/08/12 03:38:40;;;;;;;3.90;2.75;;;;;;;;;;5015378;28;20587;-48
2021/08/12 03:41:06;;;;;;;3.25;2.95;;;;;;;;;;5024243;28;20250;-48
2021/08/12 03:43:32;;;;;;;4.22;3.00;;;;;;;;;;5024454;28;20510;-48
2021/08/12 03:45:58;;;;;;;3.08;2.72;;;;;;;;;;5019730;28;20172;-47
2021/08/12 03:48:24;;;;;;;3.20;2.90;;;;;;;;;;4998472;28;20426;-48
2021/08/12 03:50:50;;;;;;;3.22;2.92;;;;;;;;;;4996008;28;20253;-48
2021/08/12 03:53:16;;;;;;;3.60;3.22;;;;;;;;;;4996057;28;20188;-48
2021/08/12 03:55:42;;;;;;;3.72;3.08;;;;;;;;;;5004346;28;20172;-48
2021/08/12 03:58:08;;;;;;;3.40;3.08;;;;;;;;;;4997944;28;20177;-47
2021/08/12 04:00:34;;;;;;;3.53;3.22;;;;;;;;;;4996068;28;20216;-49
2021/08/12 04:03:00;;;;;;;4.22;3.58;;;;;;;;;;4996194;28;20304;-48
2021/08/12 04:05:26;;;;;;;4.28;3.50;;;;;;;;;;4995571;28;20264;-48
2021/08/12 04:07:52;;;;;;;3.67;3.38;;;;;;;;;;4995545;28;20173;-47
2021/08/12 04:10:18;;;;;;;3.55;3.20;;;;;;;;;;4998533;28;20213;-48
2021/08/12 04:12:44;;;;;;;3.50;3.10;;;;;;;;;;4999380;28;20300;-48
2021/08/12 04:15:10;;;;;;;3.60;3.22;;;;;;;;;;4995931;28;20181;-48
2021/08/12 04:17:36;;;;;;;3.25;2.95;;;;;;;;;;4995445;28;20192;-49
2021/08/12 04:20:02;;;;;;;3.70;3.08;;;;;;;;;;4995505;28;20169;-49
2021/08/12 04:22:28;;;;;;;4.65;2.90;;;;;;;;;;4995844;28;20218;-48
2021/08/12 04:24:54;;;;;;;4.75;3.33;;;;;;;;;;4999975;28;20262;-48
2021/08/12 04:27:20;;;;;;;4.38;3.13;;;;;;;;;;4995479;28;20687;-49
2021/08/12 04:29:46;;;;;;;3.50;3.20;;;;;;;;;;4995581;28;20732;-49
2021/08/12 04:32:12;;;;;;;5.10;3.15;;;;;;;;;;4995592;28;20166;-48
2021/08/12 04:34:38;;;;;;;5.00;3.33;;;;;;;;;;4995261;28;20259;-48
2021/08/12 04:37:04;;;;;;;4.32;3.25;;;;;;;;;;4995183;28;20169;-49
2021/08/12 04:39:30;;;;;;;4.47;3.15;;;;;;;;;;4998530;28;20502;-48
2021/08/12 04:41:56;;;;;;;3.75;3.10;;;;;;;;;;4999698;28;20187;-48
2021/08/12 04:44:22;;;;;;;4.13;3.00;;;;;;;;;;4995398;28;20177;-49
2021/08/12 04:46:48;;;;;;;4.15;3.10;;;;;;;;;;4994995;28;20189;-48
2021/08/12 04:49:14;;;;;;;3.20;2.90;;;;;;;;;;4994129;28;20181;-48
2021/08/12 04:51:42;;;;;;;3.63;2.72;;;;;;;;;;4995389;28;20544;-48
2021/08/12 04:54:08;;;;;;;3.53;3.10;;;;;;;;;;4994825;28;20216;-49
2021/08/12 04:56:34;;;;;;;3.17;2.85;;;;;;;;;;5001594;28;20464;-48
2021/08/12 04:59:00;;;;;;;3.17;2.88;;;;;;;;;;4994581;28;20184;-51
2021/08/12 05:01:26;;;;;;;3.58;2.80;;;;;;;;;;4999937;28;20208;-48
2021/08/12 05:03:52;;;;;;;7.45;3.28;;;;;;;;;;5009273;28;20173;-48
2021/08/12 05:06:18;;;;;;;8.93;3.38;;;;;;;;;;4994950;28;20560;-45
2021/08/12 05:08:44;;;;;;;7.15;3.17;;;;;;;;;;4994492;28;20263;-48
2021/08/12 05:11:11;;;;;;;5.80;3.20;;;;;;;;;;4996027;28;20244;-46
2021/08/12 05:13:37;;;;;;;4.82;3.15;;;;;;;;;;4995166;28;20166;-46
2021/08/12 05:16:04;;;;;;;5.95;3.03;;;;;;;;;;4994839;28;20181;-50
2021/08/12 05:18:30;;;;;;;10.77;3.25;;;;;;;;;;4994396;28;20173;-47
2021/08/12 05:20:56;;;;;;;5.93;2.88;;;;;;;;;;4997387;28;20293;-48
2021/08/12 05:23:22;;;;;;;3.53;3.22;;;;;;;;;;4994768;28;20278;-48
2021/08/12 05:25:48;;;;;;;4.88;3.20;;;;;;;;;;4996726;28;20188;-48
2021/08/12 05:28:14;;;;;;;6.60;3.40;;;;;;;;;;4993653;28;20543;-48
2021/08/12 05:30:40;;;;;;;8.43;3.60;;;;;;;;;;4993406;28;20204;-48
2021/08/12 05:33:06;;;;;;;5.65;3.42;;;;;;;;;;4993928;28;20234;-49
2021/08/12 05:35:32;;;;;;;7.78;3.42;;;;;;;;;;4996899;28;20219;-48
2021/08/12 05:37:58;;;;;;;9.60;4.15;;;;;;;;;;4995839;28;20197;-49
2021/08/12 05:40:24;;;;;;;15.80;5.50;;;;;;;;;;4996962;28;20180;-48
2021/08/12 05:42:50;;;;;;;13.75;5.10;;;;;;;;;;4997085;28;20197;-48
2021/08/12 05:48:20;;;;;;;12.98;5.10;;;;;;;;;;5007031;28;20501;-48
2021/08/12 05:50:46;;;;;;;9.43;4.55;;;;;;;;;;4996958;28;20283;-49
2021/08/12 05:53:13;;;;;;;12.00;4.43;;;;;;;;;;4996635;28;20169;-49
2021/08/12 05:55:39;;;;;;;11.77;5.15;;;;;;;;;;4996529;28;20169;-47
2021/08/12 05:58:05;;;;;;;12.40;5.38;;;;;;;;;;4996668;28;20173;-49
2021/08/12 06:03:35;;;;;;;13.13;5.35;;;;;;;;;;5000933;28;20160;-48
2021/08/12 06:06:01;;;;;;;10.18;5.47;;;;;;;;;;5000515;28;20184;-48
2021/08/12 06:08:27;;;;;;;13.10;5.00;;;;;;;;;;4997824;28;20275;-48
2021/08/12 06:10:53;;;;;;;10.63;5.43;;;;;;;;;;5005523;28;20555;-49
2021/08/12 06:13:19;;;;;;;9.70;5.38;;;;;;;;;;5017757;28;20215;-48
2021/08/12 06:15:46;;;;;;;10.10;4.68;;;;;;;;;;5003369;28;20181;-48
2021/08/12 06:18:13;;;;;;;13.32;5.15;;;;;;;;;;4997286;28;20177;-49
2021/08/12 06:20:39;;;;;;;7.78;4.93;;;;;;;;;;4997399;28;20208;-48
2021/08/12 06:23:05;;;;;;;12.57;5.25;;;;;;;;;;4997530;28;20224;-48
2021/08/12 06:25:39;;;;;;;10.32;4.82;;;;;;;;;;5002244;28;20227;-48
2021/08/12 06:28:05;;;;;;;9.55;5.35;;;;;;;;;;5016869;28;20295;-48
2021/08/12 06:30:31;;;;;;;13.05;5.13;;;;;;;;;;5004876;28;20193;-48
2021/08/12 06:32:57;;;;;;;10.13;5.10;;;;;;;;;;4998140;28;20174;-47
2021/08/12 06:35:26;;;;;;;10.30;4.88;;;;;;;;;;4997151;28;20255;-48
2021/08/12 06:37:52;;;;;;;8.13;4.65;;;;;;;;;;4996898;28;20268;-48
2021/08/12 06:40:22;;;;;;;8.15;4.75;;;;;;;;;;5000312;28;20438;-48
2021/08/12 06:42:48;;;;;;;7.88;4.72;;;;;;;;;;5001910;28;20204;-49
2021/08/12 06:45:15;;;;;;;8.90;4.40;;;;;;;;;;5007679;28;20445;-47
2021/08/12 06:47:42;;;;;;;9.18;4.70;;;;;;;;;;5004304;28;20205;-48
2021/08/12 06:50:08;;;;;;;6.68;4.57;;;;;;;;;;5016785;28;20200;-49
2021/08/12 06:52:35;;;;;;;7.30;4.32;;;;;;;;;;5016807;28;20197;-49
2021/08/12 06:55:01;;;;;;;6.57;4.47;;;;;;;;;;5017040;28;20191;-48
2021/08/12 06:57:27;;;;;;;7.85;4.45;;;;;;;;;;5036321;28;20168;-47
2021/08/12 06:59:53;;;;;;;6.97;4.78;;;;;;;;;;5029566;28;20192;-48
2021/08/12 07:02:19;;;;;;;9.38;4.30;;;;;;;;;;5016498;28;20176;-48
2021/08/12 07:04:45;;;;;;;4.65;3.78;;;;;;;;;;5016704;28;20184;-48
2021/08/12 07:07:12;;;;;;;7.82;4.05;;;;;;;;;;5016106;28;20599;-47
2021/08/12 07:09:38;;;;;;;7.93;4.00;;;;;;;;;;5015974;28;20197;-49
2021/08/12 07:12:05;;;;;;;7.43;4.50;;;;;;;;;;5033176;28;20255;-49
2021/08/12 07:14:31;;;;;;;7.60;4.38;;;;;;;;;;5032274;28;20552;-48
2021/08/12 07:16:57;;;;;;;6.72;4.47;;;;;;;;;;5015667;28;20183;-48
2021/08/12 07:19:23;;;;;;;7.68;4.28;;;;;;;;;;5016209;28;20173;-48
2021/08/12 07:21:51;;;;;;;8.18;4.50;;;;;;;;;;5016742;28;20176;-48
2021/08/12 07:24:18;;;;;;;6.60;4.03;;;;;;;;;;5016144;28;20437;-48
2021/08/12 07:26:47;;;;;;;5.75;3.75;;;;;;;;;;5030841;28;20424;-48
2021/08/12 07:29:13;;;;;;;6.85;4.03;;;;;;;;;;5033718;28;20206;-48
2021/08/12 07:31:39;;;;;;;6.40;3.88;;;;;;;;;;5015819;28;20557;-49
2021/08/12 07:34:05;;;;;;;6.70;4.32;;;;;;;;;;5016258;28;20169;-50
2021/08/12 07:36:33;;;;;;;5.22;3.65;;;;;;;;;;5015778;28;20267;-48
2021/08/12 07:38:59;;;;;;;7.40;4.03;;;;;;;;;;5015419;28;20242;-49
2021/08/12 07:41:25;;;;;;;6.63;4.15;;;;;;;;;;5023984;28;20219;-49
2021/08/12 07:43:51;;;;;;;5.22;3.72;;;;;;;;;;5016022;28;20173;-48
2021/08/12 07:46:17;;;;;;;6.60;4.10;;;;;;;;;;5033210;28;20454;-49
2021/08/12 07:48:43;;;;;;;6.28;4.63;;;;;;;;;;5015240;28;20200;-48
2021/08/12 07:51:09;;;;;;;4.63;3.55;;;;;;;;;;5015690;28;20291;-49
2021/08/12 07:53:35;;;;;;;5.72;3.63;;;;;;;;;;5015116;28;20183;-49
2021/08/12 07:56:01;;;;;;;6.05;3.92;;;;;;;;;;5024424;28;20462;-49
2021/08/12 07:58:27;;;;;;;5.25;4.10;;;;;;;;;;5034984;28;20160;-49
2021/08/12 08:00:53;;;;;;;5.15;3.70;;;;;;;;;;5019783;28;20187;-49
2021/08/12 08:03:20;;;;;;;5.53;4.30;;;;;;;;;;4998324;28;20419;-49
2021/08/12 08:05:46;;;;;;;4.50;4.03;;;;;;;;;;5015208;28;20196;-49
2021/08/12 08:08:12;;;;;;;4.57;3.80;;;;;;;;;;5014630;28;20200;-49
2021/08/12 08:10:38;;;;;;;5.63;4.13;;;;;;;;;;5020831;28;20275;-49
2021/08/12 08:13:04;;;;;;;4.45;3.50;;;;;;;;;;5033022;28;20176;-48
2021/08/12 08:15:30;;;;;;;5.43;3.97;;;;;;;;;;5016817;28;20586;-48
2021/08/12 08:17:56;;;;;;;4.22;3.83;;;;;;;;;;5014584;28;20190;-49
2021/08/12 08:20:22;;;;;;;5.55;3.78;;;;;;;;;;5015464;28;20183;-48
2021/08/12 08:22:48;;;;;;;5.47;4.28;;;;;;;;;;5015195;28;20258;-50
2021/08/12 08:25:14;;;;;;;3.78;3.40;;;;;;;;;;5017301;28;20192;-48
2021/08/12 08:27:40;;;;;;;5.70;3.78;;;;;;;;;;5034307;28;20172;-48
2021/08/12 08:30:07;;;;;;;6.55;4.15;;;;;;;;;;5025802;28;20595;-49
2021/08/12 08:32:33;;;;;;;6.57;3.63;;;;;;;;;;5015419;28;20173;-49
2021/08/12 08:34:59;;;;;;;5.05;3.97;;;;;;;;;;5015394;28;20165;-49
2021/08/12 08:37:25;;;;;;;5.32;3.72;;;;;;;;;;5014150;28;20211;-49
2021/08/12 08:39:51;;;;;;;4.97;4.00;;;;;;;;;;5015129;28;20199;-50
2021/08/12 08:42:18;;;;;;;4.35;3.63;;;;;;;;;;5022463;28;20184;-49
2021/08/12 08:44:45;;;;;;;3.97;3.55;;;;;;;;;;5016704;28;20176;-49
2021/08/12 08:47:13;;;;;;;3.90;3.17;;;;;;;;;;5014383;28;20563;-49
2021/08/12 08:49:41;;;;;;;4.25;3.85;;;;;;;;;;5012831;28;20208;-49
2021/08/12 08:52:12;;;;;;;4.75;3.58;;;;;;;;;;5014006;28;20228;-48
2021/08/12 08:54:39;;;;;;;4.05;3.08;;;;;;;;;;5014371;28;20177;-48
2021/08/12 08:57:05;;;;;;;3.67;3.08;;;;;;;;;;5031123;28;20168;-49
2021/08/12 08:59:35;;;;;;;4.03;3.33;;;;;;;;;;5030254;28;20204;-48
2021/08/12 09:02:05;;;;;;;4.78;3.50;;;;;;;;;;5014682;28;20180;-48
2021/08/12 09:04:34;;;;;;;4.00;3.53;;;;;;;;;;5014503;28;20271;-49
2021/08/12 09:07:03;;;;;;;4.95;3.35;;;;;;;;;;5014290;28;20184;-49
2021/08/12 09:09:31;;;;;;;6.78;3.65;;;;;;;;;;5013862;28;20207;-49
2021/08/12 09:11:57;;;;;;;5.15;3.00;;;;;;;;;;5030829;28;20167;-50
2021/08/12 09:14:30;;;;;;;3.90;2.85;;;;;;;;;;5031456;28;20409;-50
2021/08/12 09:16:56;;;;;;;3.35;2.90;;;;;;;;;;5014354;28;20191;-48
2021/08/12 09:19:24;;;;;;;3.72;2.95;;;;;;;;;;5014064;28;20548;-48
2021/08/12 09:21:51;;;;;;;4.25;3.00;;;;;;;;;;5014460;28;20575;-48
2021/08/12 09:24:17;;;;;;;3.83;2.90;;;;;;;;;;5013934;28;20180;-48
2021/08/12 09:26:44;;;;;;;4.03;3.00;;;;;;;;;;5028682;28;20171;-48
2021/08/12 09:29:10;;;;;;;3.72;3.15;;;;;;;;;;5032571;28;20168;-49
2021/08/12 09:31:54;;;;;;;3.50;3.15;;;;;;;;;;5014474;28;20165;-48
2021/08/12 09:34:20;;;;;;;3.33;2.88;;;;;;;;;;5016133;28;20552;-48
2021/08/12 09:36:46;;;;;;;5.03;3.00;;;;;;;;;;5018575;28;20191;-49
2021/08/12 09:39:15;;;;;;;3.45;3.10;;;;;;;;;;5017618;28;20247;-48
2021/08/12 09:41:46;;;;;;;3.35;2.90;;;;;;;;;;5026084;28;20223;-49
2021/08/12 09:44:30;;;;;;;4.22;3.28;;;;;;;;;;5019581;28;20165;-49
2021/08/12 09:46:57;;;;;;;3.92;3.53;;;;;;;;;;5037428;28;20254;-48
2021/08/12 09:49:23;;;;;;;3.70;3.08;;;;;;;;;;5032964;28;20192;-49
2021/08/12 09:51:49;;;;;;;3.10;2.85;;;;;;;;;;5018155;28;20200;-48
2021/08/12 09:54:15;;;;;;;3.10;2.80;;;;;;;;;;5017532;28;20173;-49
2021/08/12 09:56:41;;;;;;;3.42;2.63;;;;;;;;;;5032054;28;20551;-47
2021/08/12 09:59:08;;;;;;;4.53;3.30;;;;;;;;;;5036312;28;20188;-48
2021/08/12 10:01:34;;;;;;;4.15;2.97;;;;;;;;;;5017953;28;20183;-47
2021/08/12 10:04:18;;;;;;;3.72;2.92;;;;;;;;;;5017742;28;20179;-49
2021/08/12 10:06:44;;;;;;;2.88;2.55;;;;;;;;;;5018195;28;20179;-47
2021/08/12 10:09:16;;;;;;;3.00;2.70;;;;;;;;;;5016854;28;20200;-48
2021/08/12 10:11:43;;;;;;;3.67;3.00;;;;;;;;;;5031786;28;20179;-47
2021/08/12 10:14:09;;;;;;;3.55;3.15;;;;;;;;;;5036814;28;20164;-49
2021/08/12 10:16:36;;;;;;;4.85;3.25;;;;;;;;;;5017662;28;20267;-48
2021/08/12 10:19:06;;;;;;;4.70;3.03;;;;;;;;;;5017176;28;20176;-47
2021/08/12 10:21:36;;;;;;;4.60;3.08;;;;;;;;;;5017738;28;20251;-48
2021/08/12 10:24:02;;;;;;;3.63;2.80;;;;;;;;;;5016909;28;20176;-49
2021/08/12 10:26:29;;;;;;;6.32;3.30;;;;;;;;;;5029524;28;20176;-48
2021/08/12 10:29:15;;;;;;;3.92;3.05;;;;;;;;;;5036809;28;20176;-48
2021/08/12 10:31:45;;;;;;;6.60;3.00;;;;;;;;;;4998131;28;20256;-48
2021/08/12 10:34:14;;;;;;;3.83;2.95;;;;;;;;;;4980879;28;20181;-47
2021/08/12 10:36:40;;;;;;;2.60;2.40;;;;;;;;;;5010868;28;20195;-48
2021/08/12 10:39:07;;;;;;;3.45;2.92;;;;;;;;;;5016155;28;20180;-49
2021/08/12 10:41:36;;;;;;;3.28;2.97;;;;;;;;;;5024865;28;20295;-47
2021/08/12 10:44:02;;;;;;;4.32;3.20;;;;;;;;;;5017311;28;20169;-47
2021/08/12 10:46:32;;;;;;;3.58;3.28;;;;;;;;;;4996425;28;20256;-48
2021/08/12 10:49:16;;;;;;;3.40;3.10;;;;;;;;;;4997078;28;20181;-47
2021/08/12 10:52:05;;;;;;;3.22;2.92;;;;;;;;;;4997003;28;20869;-48
2021/08/12 10:54:33;;;;;;;3.75;3.03;;;;;;;;;;5006575;28;20560;-47
2021/08/12 10:57:15;;;;;;;4.97;2.83;;;;;;;;;;5033104;28;20191;-48
2021/08/12 10:59:42;;;;;;;3.38;2.70;;;;;;;;;;5031503;28;20501;-48
2021/08/12 11:02:26;;;;;;;3.75;2.90;;;;;;;;;;5016642;28;20173;-47
2021/08/12 11:04:53;;;;;;;3.40;2.92;;;;;;;;;;5016739;28;20180;-47
2021/08/12 11:07:37;;;;;;;2.85;2.58;;;;;;;;;;5016116;28;20219;-47
2021/08/12 11:10:07;;;;;;;3.13;2.83;;;;;;;;;;5016726;28;20204;-47
2021/08/12 11:12:51;;;;;;;4.10;3.10;;;;;;;;;;5036205;28;20191;-49
2021/08/12 11:15:40;;;;;;;3.30;3.00;;;;;;;;;;5026463;28;20192;-47
2021/08/12 11:18:08;;;;;;;3.15;2.88;;;;;;;;;;5015915;28;20252;-49
2021/08/12 11:20:35;;;;;;;4.30;2.88;;;;;;;;;;5016120;28;20187;-48
2021/08/12 11:23:19;;;;;;;3.28;2.83;;;;;;;;;;4996999;28;20288;-48
2021/08/12 11:25:55;;;;;;;3.85;2.88;;;;;;;;;;5022396;28;20298;-48
2021/08/12 11:28:39;;;;;;;3.45;3.05;;;;;;;;;;5034624;28;20184;-49
2021/08/12 11:31:27;;;;;;;3.00;2.65;;;;;;;;;;5018919;28;20211;-48
2021/08/12 11:33:54;;;;;;;3.20;2.90;;;;;;;;;;4989878;28;20193;-48
2021/08/12 11:36:23;;;;;;;3.28;2.80;;;;;;;;;;4997861;28;20260;-49
2021/08/12 11:38:50;;;;;;;3.53;2.88;;;;;;;;;;5015278;28;20191;-48
2021/08/12 11:41:17;;;;;;;3.20;2.90;;;;;;;;;;5023832;28;20552;-47
2021/08/12 11:43:44;;;;;;;4.00;3.05;;;;;;;;;;5015656;28;20247;-49
2021/08/12 11:46:11;;;;;;;4.00;3.10;;;;;;;;;;5016429;28;20802;-47
2021/08/12 11:48:37;;;;;;;3.28;2.88;;;;;;;;;;5035232;28;20547;-48
2021/08/12 11:51:03;;;;;;;3.65;2.97;;;;;;;;;;5017400;28;20220;-48
2021/08/12 11:53:36;;;;;;;4.25;3.10;;;;;;;;;;5015427;28;20511;-47
2021/08/12 11:56:09;;;;;;;3.28;2.97;;;;;;;;;;5023908;28;20256;-47
2021/08/12 11:58:35;;;;;;;3.88;2.92;;;;;;;;;;5035291;28;20265;-48
2021/08/12 12:01:15;;;;;;;3.40;3.05;;;;;;;;;;5019192;28;20185;-47
2021/08/12 12:03:41;;;;;;;3.42;2.95;;;;;;;;;;5015635;28;20179;-48
2021/08/12 12:06:07;;;;;;;3.47;3.17;;;;;;;;;;5015432;28;20608;-48
2021/08/12 12:08:33;;;;;;;3.38;3.08;;;;;;;;;;5014639;28;20200;-47
2021/08/12 12:11:08;;;;;;;3.45;2.85;;;;;;;;;;5023348;28;20603;-48
2021/08/12 12:13:34;;;;;;;3.13;2.83;;;;;;;;;;5035255;28;20412;-49
2021/08/12 12:16:00;;;;;;;3.58;3.03;;;;;;;;;;5019049;28;20219;-49
2021/08/12 12:18:31;;;;;;;3.25;2.95;;;;;;;;;;5014872;28;20545;-47
2021/08/12 12:21:13;;;;;;;4.43;2.90;;;;;;;;;;5015337;28;20188;-47
2021/08/12 12:23:40;;;;;;;3.20;2.90;;;;;;;;;;5015062;28;20191;-47
2021/08/12 12:26:06;;;;;;;3.20;2.90;;;;;;;;;;5024234;28;20180;-48
2021/08/12 12:28:41;;;;;;;3.17;2.72;;;;;;;;;;5034619;28;20176;-49
2021/08/12 12:31:14;;;;;;;3.30;2.80;;;;;;;;;;5000920;28;20214;-49
2021/08/12 12:33:40;;;;;;;3.30;3.00;;;;;;;;;;5015111;28;20248;-48
2021/08/12 12:36:06;;;;;;;3.17;2.88;;;;;;;;;;5015231;28;20571;-48
2021/08/12 12:38:33;;;;;;;3.42;3.08;;;;;;;;;;5014480;28;20165;-48
2021/08/12 12:41:04;;;;;;;2.70;2.47;;;;;;;;;;5022576;28;20184;-48
2021/08/12 12:43:30;;;;;;;4.18;2.95;;;;;;;;;;5015084;28;20215;-47
2021/08/12 12:45:57;;;;;;;3.10;2.80;;;;;;;;;;5030506;28;20471;-47
2021/08/12 12:48:30;;;;;;;6.07;2.58;;;;;;;;;;5033897;28;20459;-49
2021/08/12 12:50:57;;;;;;;4.65;3.08;;;;;;;;;;5019938;28;20212;-47
2021/08/12 12:53:28;;;;;;;4.03;3.00;;;;;;;;;;5014524;28;20499;-48
2021/08/12 12:55:54;;;;;;;7.85;3.20;;;;;;;;;;5022136;28;20494;-48
2021/08/12 12:58:20;;;;;;;4.45;2.88;;;;;;;;;;5028844;28;20426;-48
2021/08/12 13:01:02;;;;;;;7.80;2.92;;;;;;;;;;5022813;28;20183;-48
2021/08/12 13:03:31;;;;;;;4.65;3.13;;;;;;;;;;5002092;28;20271;-47
2021/08/12 13:05:58;;;;;;;7.28;3.47;;;;;;;;;;5015836;28;20430;-48
2021/08/12 13:08:24;;;;;;;10.65;3.90;;;;;;;;;;5013238;28;20200;-48
2021/08/12 13:11:10;;;;;;;8.30;3.25;;;;;;;;;;5018257;28;20642;-48
2021/08/12 13:13:37;;;;;;;7.70;3.00;;;;;;;;;;5024591;28;20184;-47
2021/08/12 13:16:04;;;;;;;11.00;3.22;;;;;;;;;;5016993;28;20184;-47
2021/08/12 13:18:49;;;;;;;7.22;3.00;;;;;;;;;;5013673;28;20188;-48
2021/08/12 13:21:24;;;;;;;7.65;3.67;;;;;;;;;;5014567;28;20454;-49
2021/08/12 13:23:53;;;;;;;9.07;3.13;;;;;;;;;;5013929;28;20323;-49
2021/08/12 13:26:42;;;;;;;4.68;2.67;;;;;;;;;;5013936;28;20185;-48
2021/08/12 13:29:10;;;;;;;4.35;3.15;;;;;;;;;;5006197;28;20510;-48
2021/08/12 13:32:02;;;;;;;7.70;3.38;;;;;;;;;;5014573;28;20203;-47
2021/08/12 13:34:29;;;;;;;3.72;3.03;;;;;;;;;;5014418;28;20184;-49
2021/08/12 13:36:55;;;;;;;5.18;3.42;;;;;;;;;;5014349;28;20189;-49
2021/08/12 13:39:22;;;;;;;6.13;3.30;;;;;;;;;;5014217;28;20188;-47
2021/08/12 13:41:48;;;;;;;6.00;3.08;;;;;;;;;;5022017;28;20180;-48
2021/08/12 13:44:14;;;;;;;5.15;2.78;;;;;;;;;;5015841;28;20407;-48
2021/08/12 13:46:40;;;;;;;3.38;3.08;;;;;;;;;;5034110;28;20175;-47
2021/08/12 13:49:06;;;;;;;4.40;2.90;;;;;;;;;;5033311;28;20612;-48
2021/08/12 13:51:32;;;;;;;3.35;2.70;;;;;;;;;;5014276;28;20559;-47
2021/08/12 13:53:58;;;;;;;3.85;2.90;;;;;;;;;;5013728;28;20183;-48
2021/08/12 13:56:24;;;;;;;3.50;3.20;;;;;;;;;;5025850;28;20176;-48
2021/08/12 13:58:50;;;;;;;3.80;2.80;;;;;;;;;;5033820;28;20172;-47
2021/08/12 14:01:17;;;;;;;5.25;3.17;;;;;;;;;;5019346;28;20438;-49
2021/08/12 14:03:43;;;;;;;3.30;3.00;;;;;;;;;;5014222;28;20188;-49
2021/08/12 14:06:09;;;;;;;3.05;2.75;;;;;;;;;;5013881;28;20188;-49
2021/08/12 14:08:35;;;;;;;4.70;2.90;;;;;;;;;;5013242;28;20201;-48
2021/08/12 14:11:01;;;;;;;3.65;3.10;;;;;;;;;;5022255;28;20454;-48
2021/08/12 14:13:29;;;;;;;3.58;3.17;;;;;;;;;;5033912;28;20168;-48
2021/08/12 14:15:55;;;;;;;4.00;2.92;;;;;;;;;;5018631;28;20203;-48
2021/08/12 14:18:21;;;;;;;3.20;2.90;;;;;;;;;;5012431;28;20205;-49
2021/08/12 14:20:47;;;;;;;3.78;3.10;;;;;;;;;;5015324;28;20287;-48
2021/08/12 14:23:13;;;;;;;3.20;2.90;;;;;;;;;;5016235;28;20192;-48
2021/08/12 14:25:39;;;;;;;3.58;2.70;;;;;;;;;;5021311;28;20188;-47
2021/08/12 14:28:05;;;;;;;4.47;3.17;;;;;;;;;;5035895;28;20182;-48
2021/08/12 14:30:31;;;;;;;4.35;3.00;;;;;;;;;;5024418;28;20228;-48
2021/08/12 14:32:57;;;;;;;5.75;3.35;;;;;;;;;;5016856;28;20204;-48
2021/08/12 14:35:23;;;;;;;5.35;2.70;;;;;;;;;;5017063;28;20215;-48
2021/08/12 14:37:49;;;;;;;4.05;2.88;;;;;;;;;;5016886;28;20176;-49
2021/08/12 14:40:16;;;;;;;3.92;3.10;;;;;;;;;;5018590;28;20180;-48
2021/08/12 14:42:42;;;;;;;3.03;2.67;;;;;;;;;;5021064;28;20176;-47
2021/08/12 14:45:08;;;;;;;4.07;3.08;;;;;;;;;;5017203;28;20185;-47
2021/08/12 14:47:34;;;;;;;4.13;3.28;;;;;;;;;;5022281;28;20559;-48
2021/08/12 14:50:00;;;;;;;4.72;2.80;;;;;;;;;;5019679;28;20575;-48
2021/08/12 14:52:26;;;;;;;3.65;3.20;;;;;;;;;;5024448;28;20219;-49
2021/08/12 14:54:52;;;;;;;4.63;3.10;;;;;;;;;;5020635;28;20558;-48